Time;durP1;ratioP1;P1;durP2;ratioP2;P2;SDS_P1;SDS_P2;PMS_P1;PMS_P2;Temp;Humidity;BMP_temperature;BMP_pressure;BME280_temperature;BME280_humidity;BME280_pressure;Samples;Min_cycle;Max_cycle;Signal;HPM_P1;HPM_P2
2023/05/28 00:00:11;;;;;;;5.90;4.10;;;;;;;;;;5004139;28;20189;-49
2023/05/28 00:02:37;;;;;;;6.13;3.78;;;;;;;;;;5011952;28;20433;-49
2023/05/28 00:05:06;;;;;;;5.97;4.20;;;;;;;;;;5007328;28;20192;-50
2023/05/28 00:07:32;;;;;;;5.45;3.90;;;;;;;;;;5015519;28;20500;-49
2023/05/28 00:09:58;;;;;;;6.78;4.55;;;;;;;;;;5012744;28;20603;-49
2023/05/28 00:12:25;;;;;;;8.63;4.20;;;;;;;;;;5011560;28;20230;-49
2023/05/28 00:14:51;;;;;;;7.70;4.22;;;;;;;;;;5011118;28;20208;-51
2023/05/28 00:17:17;;;;;;;6.00;4.45;;;;;;;;;;5009475;28;20262;-48
2023/05/28 00:19:43;;;;;;;5.38;4.30;;;;;;;;;;5009782;28;20219;-50
2023/05/28 00:22:09;;;;;;;5.50;4.35;;;;;;;;;;5011650;28;20188;-49
2023/05/28 00:24:35;;;;;;;5.97;4.40;;;;;;;;;;5012318;28;20192;-49
2023/05/28 00:27:01;;;;;;;5.93;4.20;;;;;;;;;;5013359;28;20456;-51
2023/05/28 00:29:27;;;;;;;5.07;3.70;;;;;;;;;;5024358;28;20483;-49
2023/05/28 00:31:56;;;;;;;5.25;3.92;;;;;;;;;;5014621;28;20200;-49
2023/05/28 00:34:23;;;;;;;6.47;3.88;;;;;;;;;;5014315;28;20712;-49
2023/05/28 00:36:49;;;;;;;4.82;3.70;;;;;;;;;;5011709;28;20181;-49
2023/05/28 00:39:15;;;;;;;8.30;4.47;;;;;;;;;;5013197;28;20279;-51
2023/05/28 00:41:41;;;;;;;7.53;4.47;;;;;;;;;;5012914;28;20199;-49
2023/05/28 00:44:08;;;;;;;6.35;4.28;;;;;;;;;;5004498;28;20193;-49
2023/05/28 00:46:35;;;;;;;6.00;4.13;;;;;;;;;;5006911;28;20184;-51
2023/05/28 00:49:01;;;;;;;6.13;4.15;;;;;;;;;;5005314;28;20181;-48
2023/05/28 00:51:27;;;;;;;7.50;4.53;;;;;;;;;;5009346;28;20270;-50
2023/05/28 00:53:53;;;;;;;5.53;4.22;;;;;;;;;;5013144;28;20606;-49
2023/05/28 00:56:19;;;;;;;4.60;3.88;;;;;;;;;;5012042;28;20297;-49
2023/05/28 00:58:48;;;;;;;7.05;4.53;;;;;;;;;;5012897;28;20169;-49
2023/05/28 01:01:14;;;;;;;7.72;4.60;;;;;;;;;;5010837;28;20188;-48
2023/05/28 01:03:40;;;;;;;8.50;4.55;;;;;;;;;;5009764;28;20184;-49
2023/05/28 01:06:09;;;;;;;5.32;3.90;;;;;;;;;;5007868;28;20317;-49
2023/05/28 01:08:35;;;;;;;8.15;4.47;;;;;;;;;;5011403;28;20188;-50
2023/05/28 01:11:01;;;;;;;7.38;4.45;;;;;;;;;;5011032;28;20610;-49
2023/05/28 01:13:27;;;;;;;6.25;3.90;;;;;;;;;;5006004;28;20331;-49
2023/05/28 01:15:52;;;;;;;7.32;4.78;;;;;;;;;;5014469;28;20187;-50
2023/05/28 01:18:19;;;;;;;9.48;4.28;;;;;;;;;;5004726;28;20178;-49
2023/05/28 01:20:45;;;;;;;4.97;3.78;;;;;;;;;;5010449;28;20193;-48
2023/05/28 01:23:12;;;;;;;5.35;4.15;;;;;;;;;;5009941;28;20243;-48
2023/05/28 01:25:38;;;;;;;6.90;4.25;;;;;;;;;;5010949;28;20216;-51
2023/05/28 01:28:12;;;;;;;6.05;4.10;;;;;;;;;;5001979;28;20433;-49
2023/05/28 01:30:38;;;;;;;6.03;4.65;;;;;;;;;;5016621;28;20294;-48
2023/05/28 01:33:05;;;;;;;4.65;3.65;;;;;;;;;;5007727;28;20800;-50
2023/05/28 01:35:31;;;;;;;6.20;3.75;;;;;;;;;;5010035;28;20181;-50
2023/05/28 01:37:59;;;;;;;7.65;4.20;;;;;;;;;;5003273;28;20185;-49
2023/05/28 01:40:26;;;;;;;7.72;3.75;;;;;;;;;;5009911;28;20193;-49
2023/05/28 01:42:55;;;;;;;6.05;3.80;;;;;;;;;;5002646;28;20189;-49
2023/05/28 01:45:21;;;;;;;6.32;4.13;;;;;;;;;;5008913;28;20188;-49
2023/05/28 01:47:47;;;;;;;6.78;4.20;;;;;;;;;;5010632;28;20188;-49
2023/05/28 01:50:14;;;;;;;5.97;3.80;;;;;;;;;;5010612;28;20323;-49
2023/05/28 01:52:40;;;;;;;6.45;4.28;;;;;;;;;;5012817;28;20177;-48
2023/05/28 01:55:08;;;;;;;6.78;3.92;;;;;;;;;;5014217;28;20474;-49
2023/05/28 01:57:34;;;;;;;7.07;3.55;;;;;;;;;;5010290;28;20181;-49
2023/05/28 02:00:00;;;;;;;5.65;4.13;;;;;;;;;;5014269;28;20243;-50
2023/05/28 02:02:26;;;;;;;5.38;4.10;;;;;;;;;;5011274;28;20188;-50
2023/05/28 02:04:52;;;;;;;5.05;3.78;;;;;;;;;;5012648;28;20176;-49
2023/05/28 02:07:18;;;;;;;4.25;3.35;;;;;;;;;;5013630;28;20200;-49
2023/05/28 02:09:45;;;;;;;4.47;3.38;;;;;;;;;;5014393;28;20187;-49
2023/05/28 02:12:11;;;;;;;5.00;3.92;;;;;;;;;;5012548;28;20208;-49
2023/05/28 02:14:37;;;;;;;6.57;3.70;;;;;;;;;;5006777;28;20220;-49
2023/05/28 02:17:03;;;;;;;5.65;3.83;;;;;;;;;;5013945;28;20211;-49
2023/05/28 02:19:28;;;;;;;7.40;3.80;;;;;;;;;;5015884;28;20552;-48
2023/05/28 02:21:55;;;;;;;6.85;3.78;;;;;;;;;;5009692;28;19990;-50
2023/05/28 02:24:22;;;;;;;5.85;3.90;;;;;;;;;;5017343;28;20556;-48
2023/05/28 02:26:48;;;;;;;5.72;3.70;;;;;;;;;;5015131;28;20205;-50
2023/05/28 02:29:14;;;;;;;5.65;3.80;;;;;;;;;;5012603;28;20196;-49
2023/05/28 02:31:40;;;;;;;6.38;3.58;;;;;;;;;;5014945;28;20596;-49
2023/05/28 02:34:07;;;;;;;6.28;4.30;;;;;;;;;;5012753;28;20180;-49
2023/05/28 02:36:33;;;;;;;6.50;3.95;;;;;;;;;;5015180;28;20295;-49
2023/05/28 02:38:59;;;;;;;4.60;3.72;;;;;;;;;;5004568;28;20260;-49
2023/05/28 02:41:26;;;;;;;7.35;3.63;;;;;;;;;;5016236;28;20204;-48
2023/05/28 02:43:52;;;;;;;5.38;3.70;;;;;;;;;;5019550;28;20501;-49
2023/05/28 02:46:18;;;;;;;5.25;3.60;;;;;;;;;;5005389;28;20192;-49
2023/05/28 02:48:45;;;;;;;6.30;3.38;;;;;;;;;;5012987;28;20191;-51
2023/05/28 02:51:11;;;;;;;4.45;3.40;;;;;;;;;;5010110;28;20254;-48
2023/05/28 02:53:37;;;;;;;4.97;3.63;;;;;;;;;;5011791;28;20995;-49
2023/05/28 02:56:03;;;;;;;5.80;3.65;;;;;;;;;;5013390;28;20230;-50
2023/05/28 02:58:30;;;;;;;5.18;3.60;;;;;;;;;;5012767;28;20188;-49
2023/05/28 03:00:56;;;;;;;5.22;3.58;;;;;;;;;;5011515;28;20176;-49
2023/05/28 03:03:22;;;;;;;4.72;3.88;;;;;;;;;;5015606;28;20478;-49
2023/05/28 03:05:48;;;;;;;5.90;3.42;;;;;;;;;;5014810;28;20191;-48
2023/05/28 03:08:14;;;;;;;6.30;3.67;;;;;;;;;;5011281;28;20178;-48
2023/05/28 03:10:40;;;;;;;5.85;3.97;;;;;;;;;;5003363;28;20215;-49
2023/05/28 03:13:06;;;;;;;7.00;4.03;;;;;;;;;;5008648;28;20263;-49
2023/05/28 03:15:32;;;;;;;4.00;3.35;;;;;;;;;;5010719;28;20613;-49
2023/05/28 03:17:58;;;;;;;3.72;3.03;;;;;;;;;;5008209;28;20220;-49
2023/05/28 03:20:24;;;;;;;6.47;4.22;;;;;;;;;;5011013;28;20227;-48
2023/05/28 03:22:55;;;;;;;5.85;3.75;;;;;;;;;;5013233;28;20289;-48
2023/05/28 03:25:21;;;;;;;5.95;3.75;;;;;;;;;;5017293;28;20199;-48
2023/05/28 03:27:47;;;;;;;5.40;3.30;;;;;;;;;;5009579;28;20200;-48
2023/05/28 03:30:14;;;;;;;6.10;3.78;;;;;;;;;;5014058;28;20215;-49
2023/05/28 03:32:40;;;;;;;4.65;3.33;;;;;;;;;;5014570;28;20179;-49
2023/05/28 03:35:06;;;;;;;6.00;3.60;;;;;;;;;;5015504;28;20540;-50
2023/05/28 03:37:32;;;;;;;4.75;3.08;;;;;;;;;;5013945;28;20559;-50
2023/05/28 03:39:58;;;;;;;6.13;3.70;;;;;;;;;;5015107;28;20586;-48
2023/05/28 03:42:24;;;;;;;4.55;3.40;;;;;;;;;;5007397;28;20185;-49
2023/05/28 03:44:50;;;;;;;5.63;3.35;;;;;;;;;;5016144;28;20179;-49
2023/05/28 03:47:16;;;;;;;5.10;3.40;;;;;;;;;;5015831;28;20242;-49
2023/05/28 03:49:42;;;;;;;4.32;3.15;;;;;;;;;;5013216;28;20189;-49
2023/05/28 03:52:08;;;;;;;8.55;3.72;;;;;;;;;;5014535;28;20212;-49
2023/05/28 03:54:34;;;;;;;4.93;3.13;;;;;;;;;;5017311;28;20185;-49
2023/05/28 03:57:00;;;;;;;5.13;3.08;;;;;;;;;;5015192;28;20177;-49
2023/05/28 03:59:25;;;;;;;4.10;3.20;;;;;;;;;;5010616;28;20185;-49
2023/05/28 04:01:51;;;;;;;6.15;3.45;;;;;;;;;;5015116;28;20215;-49
2023/05/28 04:04:17;;;;;;;4.97;3.13;;;;;;;;;;5012029;28;20276;-49
2023/05/28 04:06:43;;;;;;;6.70;3.50;;;;;;;;;;5015498;28;20232;-48
2023/05/28 04:09:09;;;;;;;5.82;3.83;;;;;;;;;;5007481;28;20227;-48
2023/05/28 04:11:37;;;;;;;4.38;3.25;;;;;;;;;;5015762;28;20888;-48
2023/05/28 04:14:03;;;;;;;4.82;3.42;;;;;;;;;;5019132;28;20486;-49
2023/05/28 04:16:30;;;;;;;5.40;3.67;;;;;;;;;;5007251;28;20556;-48
2023/05/28 04:18:56;;;;;;;5.55;3.42;;;;;;;;;;5000550;28;20278;-50
2023/05/28 04:21:22;;;;;;;;;;;;;;;;;;5001073;28;20197;-48
2023/05/28 04:23:48;;;;;;;8.32;3.67;;;;;;;;;;5005302;28;20056;-49
2023/05/28 04:26:14;;;;;;;4.35;3.22;;;;;;;;;;5012723;28;20196;-49
2023/05/28 04:28:40;;;;;;;7.10;2.97;;;;;;;;;;5015132;28;20200;-49
2023/05/28 04:31:07;;;;;;;7.38;3.35;;;;;;;;;;5010117;28;20848;-48
2023/05/28 04:33:33;;;;;;;4.70;2.95;;;;;;;;;;5012201;28;20181;-49
2023/05/28 04:35:59;;;;;;;5.20;3.30;;;;;;;;;;5015510;28;20165;-48
2023/05/28 04:38:28;;;;;;;6.15;3.55;;;;;;;;;;5010530;28;20188;-49
2023/05/28 04:40:54;;;;;;;4.57;3.00;;;;;;;;;;5014217;28;20173;-50
2023/05/28 04:43:21;;;;;;;4.35;3.17;;;;;;;;;;5007366;28;20195;-50
2023/05/28 04:45:47;;;;;;;6.22;3.67;;;;;;;;;;5032984;28;20500;-49
2023/05/28 04:48:13;;;;;;;5.18;3.42;;;;;;;;;;5010743;28;20565;-48
2023/05/28 04:50:40;;;;;;;4.97;3.20;;;;;;;;;;5014059;28;20227;-50
2023/05/28 04:53:06;;;;;;;4.57;3.33;;;;;;;;;;5011159;28;20515;-48
2023/05/28 04:55:31;;;;;;;7.32;3.20;;;;;;;;;;5013797;28;20212;-48
2023/05/28 04:57:57;;;;;;;4.82;3.08;;;;;;;;;;5013191;28;20553;-48
2023/05/28 05:00:26;;;;;;;5.65;3.35;;;;;;;;;;5014679;28;20184;-50
2023/05/28 05:02:52;;;;;;;4.38;2.97;;;;;;;;;;5010259;28;20449;-50
2023/05/28 05:05:18;;;;;;;5.57;3.30;;;;;;;;;;5008410;28;20195;-48
2023/05/28 05:07:45;;;;;;;4.35;2.88;;;;;;;;;;5011549;28;20295;-48
2023/05/28 05:10:11;;;;;;;4.80;3.30;;;;;;;;;;5019622;28;20266;-49
2023/05/28 05:12:37;;;;;;;5.85;3.15;;;;;;;;;;5013758;28;20572;-48
2023/05/28 05:15:05;;;;;;;4.43;3.17;;;;;;;;;;5007869;28;20184;-49
2023/05/28 05:17:31;;;;;;;4.20;3.33;;;;;;;;;;5008781;28;20268;-49
2023/05/28 05:19:57;;;;;;;3.42;2.90;;;;;;;;;;5008968;28;20639;-50
2023/05/28 05:22:23;;;;;;;4.72;3.33;;;;;;;;;;5005879;28;20571;-49
2023/05/28 05:24:49;;;;;;;8.38;3.00;;;;;;;;;;5012265;28;20188;-51
2023/05/28 05:27:15;;;;;;;3.95;2.63;;;;;;;;;;5002535;28;20189;-48
2023/05/28 05:29:41;;;;;;;4.45;3.00;;;;;;;;;;5005884;28;20292;-51
2023/05/28 05:32:08;;;;;;;4.95;3.30;;;;;;;;;;5008252;28;20307;-48
2023/05/28 05:34:34;;;;;;;7.85;3.10;;;;;;;;;;5013322;28;20219;-49
2023/05/28 05:37:00;;;;;;;5.07;2.75;;;;;;;;;;5013252;28;20211;-49
2023/05/28 05:39:26;;;;;;;8.48;2.67;;;;;;;;;;5010625;28;20524;-50
2023/05/28 05:41:52;;;;;;;9.15;3.00;;;;;;;;;;5014311;28;20583;-49
2023/05/28 05:44:18;;;;;;;8.90;2.97;;;;;;;;;;5015334;28;20191;-48
2023/05/28 05:46:44;;;;;;;8.45;3.20;;;;;;;;;;5018090;28;20189;-48
2023/05/28 05:49:10;;;;;;;4.93;2.42;;;;;;;;;;5012012;28;20214;-48
2023/05/28 05:51:36;;;;;;;5.43;3.00;;;;;;;;;;5008943;28;20295;-49
2023/05/28 05:54:03;;;;;;;5.82;3.03;;;;;;;;;;5010855;28;20218;-50
2023/05/28 05:56:29;;;;;;;5.32;3.10;;;;;;;;;;5018156;28;20536;-50
2023/05/28 05:58:55;;;;;;;7.63;3.30;;;;;;;;;;5027770;28;20268;-49
2023/05/28 06:01:22;;;;;;;4.63;3.10;;;;;;;;;;5009737;28;20267;-49
2023/05/28 06:03:48;;;;;;;3.42;2.63;;;;;;;;;;5017314;28;20177;-50
2023/05/28 06:06:14;;;;;;;7.03;2.80;;;;;;;;;;5019363;28;20231;-50
2023/05/28 06:08:40;;;;;;;8.23;2.83;;;;;;;;;;5014940;28;20184;-49
2023/05/28 06:11:06;;;;;;;5.10;2.88;;;;;;;;;;5015629;28;20254;-49
2023/05/28 06:13:33;;;;;;;3.80;2.53;;;;;;;;;;5009087;28;20177;-49
2023/05/28 06:15:59;;;;;;;4.25;2.92;;;;;;;;;;5017968;28;20630;-49
2023/05/28 06:18:27;;;;;;;4.63;3.22;;;;;;;;;;5010046;28;20193;-49
2023/05/28 06:20:53;;;;;;;5.25;3.38;;;;;;;;;;5015356;28;20184;-50
2023/05/28 06:23:19;;;;;;;5.50;3.00;;;;;;;;;;5008602;28;20608;-48
2023/05/28 06:25:45;;;;;;;6.28;3.10;;;;;;;;;;5015886;28;20185;-48
2023/05/28 06:28:11;;;;;;;6.00;3.08;;;;;;;;;;5011338;28;20189;-48
2023/05/28 06:30:37;;;;;;;5.18;3.65;;;;;;;;;;5016701;28;20200;-49
2023/05/28 06:33:09;;;;;;;9.55;3.72;;;;;;;;;;5011072;28;20524;-49
2023/05/28 06:35:35;;;;;;;8.55;3.08;;;;;;;;;;5011664;28;20173;-49
2023/05/28 06:38:01;;;;;;;4.50;3.25;;;;;;;;;;5013094;28;20211;-49
2023/05/28 06:40:27;;;;;;;4.50;3.00;;;;;;;;;;5015949;28;20271;-49
2023/05/28 06:42:53;;;;;;;9.98;3.83;;;;;;;;;;5013803;28;20188;-50
2023/05/28 06:45:20;;;;;;;5.57;3.10;;;;;;;;;;5014584;28;20242;-49
2023/05/28 06:47:46;;;;;;;8.70;3.90;;;;;;;;;;5011310;28;20176;-50
2023/05/28 06:50:12;;;;;;;7.18;3.50;;;;;;;;;;5005351;28;22396;-49
2023/05/28 06:52:38;;;;;;;4.90;3.30;;;;;;;;;;5013695;28;20199;-49
2023/05/28 06:55:05;;;;;;;9.85;3.63;;;;;;;;;;5015485;28;20553;-49
2023/05/28 06:57:32;;;;;;;9.65;3.88;;;;;;;;;;5016913;28;20177;-49
2023/05/28 06:59:58;;;;;;;6.97;4.03;;;;;;;;;;5012842;28;20173;-49
2023/05/28 07:02:25;;;;;;;9.77;3.72;;;;;;;;;;5015831;28;20199;-49
2023/05/28 07:04:51;;;;;;;9.32;3.63;;;;;;;;;;5007498;28;20173;-49
2023/05/28 07:07:17;;;;;;;8.20;3.67;;;;;;;;;;5012214;28;20301;-49
2023/05/28 07:09:43;;;;;;;5.90;3.38;;;;;;;;;;5009793;28;20177;-49
2023/05/28 07:12:09;;;;;;;8.15;3.30;;;;;;;;;;5008211;28;20204;-51
2023/05/28 07:14:35;;;;;;;7.18;3.30;;;;;;;;;;5019801;28;20472;-49
2023/05/28 07:17:01;;;;;;;12.40;3.50;;;;;;;;;;5016782;28;20172;-50
2023/05/28 07:19:27;;;;;;;8.15;3.58;;;;;;;;;;5014230;28;20434;-49
2023/05/28 07:21:53;;;;;;;10.52;3.67;;;;;;;;;;5010582;28;20190;-49
2023/05/28 07:24:19;;;;;;;7.93;3.42;;;;;;;;;;5016205;28;20198;-49
2023/05/28 07:26:45;;;;;;;8.50;4.13;;;;;;;;;;5005213;28;20192;-49
2023/05/28 07:29:14;;;;;;;10.50;4.43;;;;;;;;;;5011227;28;20284;-51
2023/05/28 07:31:40;;;;;;;9.00;3.80;;;;;;;;;;5011508;28;20291;-50
2023/05/28 07:34:06;;;;;;;10.23;3.67;;;;;;;;;;5007155;28;20277;-49
2023/05/28 07:36:35;;;;;;;6.82;3.50;;;;;;;;;;5014319;28;20196;-51
2023/05/28 07:39:01;;;;;;;5.78;3.13;;;;;;;;;;5008270;28;20176;-50
2023/05/28 07:41:27;;;;;;;7.70;3.33;;;;;;;;;;5015519;28;20280;-49
2023/05/28 07:43:52;;;;;;;10.35;3.63;;;;;;;;;;5015582;28;20259;-49
2023/05/28 07:46:18;;;;;;;7.75;3.75;;;;;;;;;;5020658;28;20282;-51
2023/05/28 07:48:45;;;;;;;9.57;3.88;;;;;;;;;;5011905;28;20279;-50
2023/05/28 07:51:11;;;;;;;6.30;3.10;;;;;;;;;;5015524;28;20208;-49
2023/05/28 07:53:37;;;;;;;5.72;3.17;;;;;;;;;;5015420;28;20448;-49
2023/05/28 07:56:03;;;;;;;6.13;2.97;;;;;;;;;;5015648;28;20180;-49
2023/05/28 07:58:28;;;;;;;4.72;2.85;;;;;;;;;;5016031;28;20259;-49
2023/05/28 08:00:54;;;;;;;8.20;3.47;;;;;;;;;;5014292;28;20184;-48
2023/05/28 08:03:20;;;;;;;6.88;3.03;;;;;;;;;;5012688;28;20181;-49
2023/05/28 08:05:46;;;;;;;5.95;2.78;;;;;;;;;;5002428;28;20422;-50
2023/05/28 08:08:12;;;;;;;5.40;3.13;;;;;;;;;;5013588;28;20195;-49
2023/05/28 08:10:38;;;;;;;6.88;3.67;;;;;;;;;;5007349;28;20602;-49
2023/05/28 08:13:04;;;;;;;14.38;3.45;;;;;;;;;;5011752;28;20184;-49
2023/05/28 08:15:30;;;;;;;7.57;3.38;;;;;;;;;;5011374;28;20191;-49
2023/05/28 08:17:56;;;;;;;6.43;2.80;;;;;;;;;;5007481;28;20279;-49
2023/05/28 08:20:24;;;;;;;8.25;2.88;;;;;;;;;;5009141;28;20607;-49
2023/05/28 08:22:49;;;;;;;7.03;2.45;;;;;;;;;;5006545;28;20177;-49
2023/05/28 08:25:15;;;;;;;7.60;3.17;;;;;;;;;;4999525;28;20204;-49
2023/05/28 08:27:41;;;;;;;10.15;2.65;;;;;;;;;;5012506;28;20246;-49
2023/05/28 08:30:08;;;;;;;6.28;3.17;;;;;;;;;;5008053;28;20572;-48
2023/05/28 08:32:34;;;;;;;6.28;2.90;;;;;;;;;;5007933;28;20446;-50
2023/05/28 08:35:00;;;;;;;6.13;2.78;;;;;;;;;;5002693;28;20184;-49
2023/05/28 08:37:26;;;;;;;6.93;3.08;;;;;;;;;;5012770;28;20206;-49
2023/05/28 08:39:52;;;;;;;4.07;2.67;;;;;;;;;;5007337;28;20447;-49
2023/05/28 08:42:18;;;;;;;6.55;3.28;;;;;;;;;;5014106;28;20615;-49
2023/05/28 08:44:44;;;;;;;10.15;2.63;;;;;;;;;;5001748;28;20485;-49
2023/05/28 08:47:10;;;;;;;20.58;5.65;;;;;;;;;;5015163;28;20271;-49
2023/05/28 08:49:41;;;;;;;18.60;5.55;;;;;;;;;;5013710;28;20188;-50
2023/05/28 08:52:09;;;;;;;17.67;6.03;;;;;;;;;;5005371;28;20223;-49
2023/05/28 08:54:35;;;;;;;26.92;7.65;;;;;;;;;;5015382;28;20230;-51
2023/05/28 08:57:02;;;;;;;22.30;6.80;;;;;;;;;;5009398;28;20285;-49
2023/05/28 08:59:28;;;;;;;27.90;6.93;;;;;;;;;;5011275;28;20199;-51
2023/05/28 09:01:55;;;;;;;29.13;7.05;;;;;;;;;;5007444;28;20241;-49
2023/05/28 09:04:21;;;;;;;30.83;7.97;;;;;;;;;;5014038;28;20189;-49
2023/05/28 09:06:48;;;;;;;26.67;8.00;;;;;;;;;;5008915;28;20192;-49
2023/05/28 09:09:14;;;;;;;22.17;6.00;;;;;;;;;;5011082;28;20437;-49
2023/05/28 09:11:40;;;;;;;24.10;7.10;;;;;;;;;;5029127;28;20241;-53
2023/05/28 09:14:10;;;;;;;22.23;7.28;;;;;;;;;;5004370;28;20272;-50
2023/05/28 09:16:36;;;;;;;15.68;5.60;;;;;;;;;;5012585;28;20426;-49
2023/05/28 09:19:04;;;;;;;18.45;6.07;;;;;;;;;;5005806;28;20773;-49
2023/05/28 09:21:30;;;;;;;15.73;5.85;;;;;;;;;;5006385;28;20200;-49
2023/05/28 09:23:56;;;;;;;17.15;6.05;;;;;;;;;;5013831;28;20224;-49
2023/05/28 09:26:22;;;;;;;18.75;6.38;;;;;;;;;;5012068;28;20195;-49
2023/05/28 09:28:52;;;;;;;20.92;6.95;;;;;;;;;;5012214;28;20188;-49
2023/05/28 09:31:18;;;;;;;22.23;6.97;;;;;;;;;;5010234;28;20219;-52
2023/05/28 09:33:47;;;;;;;16.40;5.43;;;;;;;;;;5010632;28;20188;-49
2023/05/28 09:36:17;;;;;;;12.50;5.35;;;;;;;;;;5013966;28;20592;-49
2023/05/28 09:38:43;;;;;;;14.10;5.18;;;;;;;;;;5004341;28;20226;-49
2023/05/28 09:41:20;;;;;;;19.80;4.78;;;;;;;;;;5011843;28;20252;-50
2023/05/28 09:43:46;;;;;;;18.70;5.70;;;;;;;;;;5017378;28;20285;-49
2023/05/28 09:46:12;;;;;;;14.65;5.28;;;;;;;;;;5013404;28;20205;-49
2023/05/28 09:48:38;;;;;;;13.38;4.93;;;;;;;;;;5014489;28;20209;-50
2023/05/28 09:51:05;;;;;;;15.15;4.88;;;;;;;;;;5006713;28;20222;-49
2023/05/28 09:53:36;;;;;;;12.00;4.47;;;;;;;;;;5010335;28;20205;-48
2023/05/28 09:56:02;;;;;;;14.65;4.70;;;;;;;;;;5029774;28;20504;-48
2023/05/28 09:58:34;;;;;;;12.82;4.85;;;;;;;;;;5008197;28;20210;-49
2023/05/28 10:01:01;;;;;;;11.05;4.57;;;;;;;;;;5013319;28;20429;-48
2023/05/28 10:03:31;;;;;;;11.27;3.72;;;;;;;;;;5011010;28;20233;-49
2023/05/28 10:06:00;;;;;;;12.80;5.00;;;;;;;;;;5025626;28;20201;-49
2023/05/28 10:08:26;;;;;;;7.90;3.85;;;;;;;;;;5005103;28;20202;-49
2023/05/28 10:10:53;;;;;;;12.13;3.60;;;;;;;;;;5013521;28;20632;-48
2023/05/28 10:13:19;;;;;;;8.93;3.45;;;;;;;;;;5009342;28;20197;-48
2023/05/28 10:15:45;;;;;;;10.63;3.65;;;;;;;;;;5007156;28;20186;-49
2023/05/28 10:18:14;;;;;;;6.20;3.78;;;;;;;;;;5012667;28;20547;-48
2023/05/28 10:20:40;;;;;;;13.15;3.60;;;;;;;;;;5029043;28;20521;-48
2023/05/28 10:23:06;;;;;;;6.25;3.13;;;;;;;;;;5007916;28;20285;-49
2023/05/28 10:25:33;;;;;;;9.00;3.80;;;;;;;;;;5010476;28;20194;-51
2023/05/28 10:28:02;;;;;;;10.00;3.90;;;;;;;;;;5010531;28;20206;-49
2023/05/28 10:30:35;;;;;;;7.07;3.20;;;;;;;;;;5006989;28;20209;-48
2023/05/28 10:33:04;;;;;;;7.53;2.97;;;;;;;;;;5014285;28;20324;-49
2023/05/28 10:35:31;;;;;;;7.13;3.50;;;;;;;;;;5017435;28;20197;-48
2023/05/28 10:38:07;;;;;;;4.45;2.78;;;;;;;;;;5016342;28;20407;-49
2023/05/28 10:40:34;;;;;;;6.70;3.28;;;;;;;;;;5014329;28;20589;-50
2023/05/28 10:43:00;;;;;;;5.55;3.40;;;;;;;;;;5016544;28;20201;-50
2023/05/28 10:45:40;;;;;;;5.90;3.00;;;;;;;;;;5017459;28;20202;-49
2023/05/28 10:48:06;;;;;;;6.00;3.30;;;;;;;;;;5017492;28;20186;-49
2023/05/28 10:50:32;;;;;;;5.13;3.05;;;;;;;;;;5016099;28;20221;-48
2023/05/28 10:53:07;;;;;;;8.00;2.78;;;;;;;;;;5016199;28;20218;-49
2023/05/28 10:55:48;;;;;;;8.38;3.30;;;;;;;;;;5015884;28;20185;-48
2023/05/28 10:58:22;;;;;;;5.00;2.97;;;;;;;;;;5013680;28;20194;-49
2023/05/28 11:00:48;;;;;;;6.00;3.00;;;;;;;;;;5014131;28;20202;-48
2023/05/28 11:03:14;;;;;;;5.25;2.95;;;;;;;;;;5006876;28;20201;-48
2023/05/28 11:05:40;;;;;;;6.28;3.20;;;;;;;;;;5015260;28;20205;-48
2023/05/28 11:08:07;;;;;;;8.45;3.50;;;;;;;;;;5004707;28;20658;-48
2023/05/28 11:10:34;;;;;;;5.00;2.95;;;;;;;;;;5012685;28;20256;-48
2023/05/28 11:13:00;;;;;;;5.97;3.30;;;;;;;;;;5016689;28;20190;-48
2023/05/28 11:15:26;;;;;;;7.13;3.38;;;;;;;;;;5010661;28;20202;-48
2023/05/28 11:17:52;;;;;;;7.60;3.30;;;;;;;;;;5016332;28;20265;-48
2023/05/28 11:20:25;;;;;;;5.43;3.10;;;;;;;;;;5015848;28;20450;-50
2023/05/28 11:22:52;;;;;;;7.38;3.13;;;;;;;;;;5014411;28;20210;-48
2023/05/28 11:25:21;;;;;;;5.57;3.08;;;;;;;;;;5008527;28;20195;-49
2023/05/28 11:27:48;;;;;;;7.60;2.88;;;;;;;;;;5016690;28;20206;-48
2023/05/28 11:30:15;;;;;;;6.63;3.10;;;;;;;;;;5014498;28;20232;-48
2023/05/28 11:32:42;;;;;;;4.53;2.72;;;;;;;;;;5003047;28;20566;-49
2023/05/28 11:35:11;;;;;;;5.85;3.42;;;;;;;;;;5015899;28;20197;-48
2023/05/28 11:37:37;;;;;;;6.03;3.03;;;;;;;;;;5012191;28;20585;-51
2023/05/28 11:40:05;;;;;;;7.75;3.08;;;;;;;;;;5015580;28;20182;-49
2023/05/28 11:42:31;;;;;;;4.97;2.88;;;;;;;;;;5014963;28;20212;-51
2023/05/28 11:44:57;;;;;;;4.60;3.08;;;;;;;;;;5016329;28;20556;-48
2023/05/28 11:47:24;;;;;;;4.40;2.65;;;;;;;;;;5016239;28;20268;-49
2023/05/28 11:49:51;;;;;;;7.55;3.47;;;;;;;;;;5016158;28;20194;-49
2023/05/28 11:52:18;;;;;;;5.50;2.80;;;;;;;;;;5015876;28;20221;-49
2023/05/28 11:54:45;;;;;;;5.65;3.22;;;;;;;;;;5006134;28;20190;-48
2023/05/28 11:57:11;;;;;;;6.13;3.10;;;;;;;;;;5011769;28;20598;-48
2023/05/28 11:59:38;;;;;;;5.10;3.00;;;;;;;;;;5015892;28;20194;-50
2023/05/28 12:02:14;;;;;;;6.85;2.95;;;;;;;;;;5015504;28;20221;-48
2023/05/28 12:04:40;;;;;;;5.03;2.63;;;;;;;;;;5008546;28;20198;-48
2023/05/28 12:07:06;;;;;;;5.25;2.97;;;;;;;;;;5010415;28;20260;-50
2023/05/28 12:09:32;;;;;;;6.15;2.67;;;;;;;;;;5013406;28;20217;-48
2023/05/28 12:12:02;;;;;;;6.15;2.92;;;;;;;;;;5004565;28;20218;-50
2023/05/28 12:14:30;;;;;;;5.55;2.83;;;;;;;;;;5013738;28;20193;-48
2023/05/28 12:16:56;;;;;;;6.78;3.15;;;;;;;;;;5011740;28;20189;-48
2023/05/28 12:19:22;;;;;;;4.82;2.70;;;;;;;;;;5014734;28;20546;-49
2023/05/28 12:21:48;;;;;;;3.72;2.28;;;;;;;;;;5014478;28;20580;-48
2023/05/28 12:24:14;;;;;;;5.38;2.58;;;;;;;;;;5010978;28;20206;-48
2023/05/28 12:26:41;;;;;;;4.10;2.85;;;;;;;;;;5014633;28;20202;-49
2023/05/28 12:29:07;;;;;;;3.17;2.50;;;;;;;;;;5012412;28;20233;-49
2023/05/28 12:31:33;;;;;;;6.25;2.67;;;;;;;;;;5012935;28;20253;-50
2023/05/28 12:33:59;;;;;;;4.95;3.05;;;;;;;;;;5005798;28;20198;-48
2023/05/28 12:36:25;;;;;;;3.92;2.55;;;;;;;;;;5012025;28;20631;-48
2023/05/28 12:38:51;;;;;;;4.30;2.50;;;;;;;;;;5012773;28;20588;-49
2023/05/28 12:41:17;;;;;;;5.65;2.83;;;;;;;;;;5013717;28;20258;-48
2023/05/28 12:43:44;;;;;;;4.10;2.63;;;;;;;;;;5007223;28;20198;-49
2023/05/28 12:46:10;;;;;;;5.43;2.63;;;;;;;;;;5014860;28;20613;-50
2023/05/28 12:48:36;;;;;;;7.20;2.80;;;;;;;;;;5010238;28;20201;-49
2023/05/28 12:51:03;;;;;;;5.28;2.55;;;;;;;;;;5008995;28;20226;-49
2023/05/28 12:53:29;;;;;;;3.75;2.42;;;;;;;;;;5007602;28;20194;-48
2023/05/28 12:55:55;;;;;;;4.97;2.90;;;;;;;;;;5014791;28;20236;-48
2023/05/28 12:58:21;;;;;;;4.63;2.83;;;;;;;;;;5010793;28;20525;-49
2023/05/28 13:00:47;;;;;;;4.60;2.65;;;;;;;;;;5012102;28;20573;-49
2023/05/28 13:03:13;;;;;;;5.65;2.90;;;;;;;;;;5017658;28;20269;-48
2023/05/28 13:05:39;;;;;;;5.85;2.63;;;;;;;;;;5012507;28;20209;-48
2023/05/28 13:08:05;;;;;;;5.22;2.63;;;;;;;;;;5008562;28;20194;-49
2023/05/28 13:10:31;;;;;;;7.57;2.97;;;;;;;;;;5006618;28;20273;-49
2023/05/28 13:12:57;;;;;;;4.43;2.63;;;;;;;;;;5010836;28;20474;-49
2023/05/28 13:15:24;;;;;;;3.70;2.42;;;;;;;;;;5009972;28;20206;-48
2023/05/28 13:17:50;;;;;;;4.82;2.83;;;;;;;;;;5012310;28;20201;-49
2023/05/28 13:20:16;;;;;;;6.78;3.15;;;;;;;;;;5007242;28;20211;-49
2023/05/28 13:22:42;;;;;;;4.28;2.60;;;;;;;;;;5007766;28;20582;-48
2023/05/28 13:25:09;;;;;;;4.53;2.60;;;;;;;;;;5011981;28;20210;-49
2023/05/28 13:27:35;;;;;;;3.10;2.42;;;;;;;;;;5013354;28;20202;-49
2023/05/28 13:30:02;;;;;;;4.97;2.47;;;;;;;;;;5011719;28;20192;-48
2023/05/28 13:32:28;;;;;;;6.28;2.90;;;;;;;;;;5012505;28;20698;-50
2023/05/28 13:34:54;;;;;;;3.13;2.30;;;;;;;;;;5008864;28;20221;-48
2023/05/28 13:37:20;;;;;;;3.17;2.00;;;;;;;;;;5011362;28;20281;-48
2023/05/28 13:39:46;;;;;;;4.43;2.50;;;;;;;;;;5010112;28;20393;-49
2023/05/28 13:42:13;;;;;;;4.40;2.63;;;;;;;;;;5014274;28;20194;-49
2023/05/28 13:44:39;;;;;;;5.28;2.70;;;;;;;;;;5014566;28;20213;-50
2023/05/28 13:47:05;;;;;;;4.43;2.50;;;;;;;;;;5010312;28;20569;-49
2023/05/28 13:49:31;;;;;;;3.33;2.65;;;;;;;;;;5022040;28;20205;-49
2023/05/28 13:51:57;;;;;;;5.03;2.60;;;;;;;;;;5014131;28;20640;-49
2023/05/28 13:54:23;;;;;;;3.80;2.60;;;;;;;;;;5014268;28;20222;-48
2023/05/28 13:56:49;;;;;;;5.20;2.67;;;;;;;;;;5014121;28;20250;-49
2023/05/28 13:59:15;;;;;;;4.72;2.63;;;;;;;;;;5013717;28;20241;-49
2023/05/28 14:01:41;;;;;;;3.38;2.10;;;;;;;;;;5013661;28;20214;-49
2023/05/28 14:04:06;;;;;;;6.43;2.83;;;;;;;;;;5008388;28;20266;-49
2023/05/28 14:06:32;;;;;;;5.40;2.47;;;;;;;;;;5010965;28;20206;-49
2023/05/28 14:08:58;;;;;;;3.17;2.40;;;;;;;;;;5017148;28;20198;-48
2023/05/28 14:11:25;;;;;;;5.07;2.40;;;;;;;;;;5011644;28;20233;-49
2023/05/28 14:13:51;;;;;;;4.55;2.38;;;;;;;;;;5015001;28;20248;-48
2023/05/28 14:16:17;;;;;;;3.63;2.35;;;;;;;;;;5010512;28;20566;-49
2023/05/28 14:18:43;;;;;;;6.30;2.78;;;;;;;;;;5009895;28;20248;-49
2023/05/28 14:21:09;;;;;;;4.00;2.30;;;;;;;;;;5011253;28;20209;-49
2023/05/28 14:23:35;;;;;;;4.72;2.08;;;;;;;;;;5020310;28;20198;-49
2023/05/28 14:26:01;;;;;;;2.60;2.22;;;;;;;;;;5014879;28;20508;-48
2023/05/28 14:28:26;;;;;;;5.80;2.33;;;;;;;;;;5013668;28;20588;-49
2023/05/28 14:30:52;;;;;;;3.95;2.15;;;;;;;;;;5011487;28;20218;-49
2023/05/28 14:33:18;;;;;;;3.47;2.20;;;;;;;;;;5009897;28;20487;-49
2023/05/28 14:35:44;;;;;;;4.65;2.20;;;;;;;;;;5013241;28;20475;-51